SQL weather

San Carlos Airport
San Carlos, California, United States

Public forecast

Using degrees Fahrenheit for public forecast. Weather courtesy of forecast.io.

METAR (pilot weather report)

Retrieved 2019/06/27 03:47 UTC (2 hours ago):

KSQL 270347Z 26006KT 10SM BKN025 16/10 A3006 RMK LAST

TAF (pilot weather forecast)

Forecast is more than 12 hours old.

Closest forecast is San Francisco International Airport, 8.8 nm (16.2 km) NW. Retrieved 2019/06/26 00:30 UTC (1 day ago):

TAF KSFO 262326Z 2700/2806 27015KT P6SM SCT020 BKN200 FM270400 27011KT P6SM FEW014 BKN200 FM270700 27011KT P6SM BKN012 OVC020 FM271700 27008KT P6SM FEW012 SCT015 FM271900 27015KT P6SM FEW010 FM280400 27008KT P6SM FEW010 BKN200